Time;durP1;ratioP1;P1;durP2;ratioP2;P2;SDS_P1;SDS_P2;PMS_P1;PMS_P2;Temp;Humidity;BMP_temperature;BMP_pressure;BME280_temperature;BME280_humidity;BME280_pressure;Samples;Min_cycle;Max_cycle;Signal;HPM_P1;HPM_P2
2021/03/05 00:00:39;;;;;;;20.53;7.53;;;9.20;57.20;;;;;;5000132;28;20519;-84
2021/03/05 00:03:07;;;;;;;16.97;8.50;;;9.20;57.20;;;;;;4996409;28;20071;-84
2021/03/05 00:05:34;;;;;;;17.97;8.03;;;9.20;57.40;;;;;;4990164;28;20026;-84
2021/03/05 00:08:00;;;;;;;23.20;9.27;;;9.10;57.50;;;;;;4994584;28;20025;-84
2021/03/05 00:10:31;;;;;;;20.30;8.30;;;9.10;57.60;;;;;;4994148;28;20056;-84
2021/03/05 00:12:57;;;;;;;24.70;8.70;;;9.20;57.90;;;;;;4994200;28;20034;-84
2021/03/05 00:15:25;;;;;;;21.73;6.90;;;9.10;57.80;;;;;;4976070;28;20121;-84
2021/03/05 00:17:51;;;;;;;18.53;7.93;;;9.00;58.30;;;;;;4979959;28;20062;-84
2021/03/05 00:20:21;;;;;;;20.37;7.13;;;9.00;58.50;;;;;;4996864;28;20116;-84
2021/03/05 00:22:47;;;;;;;14.97;5.77;;;9.00;58.50;;;;;;4982551;28;20531;-84
2021/03/05 00:25:12;;;;;;;17.20;4.83;;;8.90;58.70;;;;;;4972422;28;20058;-84
2021/03/05 00:27:38;;;;;;;14.50;4.37;;;8.90;58.90;;;;;;4974682;28;20500;-84
2021/03/05 00:30:06;;;;;;;25.93;4.50;;;8.90;58.90;;;;;;4977396;28;20023;-84
2021/03/05 00:32:33;;;;;;;23.93;4.40;;;9.00;59.00;;;;;;4976706;28;20034;-84
2021/03/05 00:34:58;;;;;;;21.77;5.77;;;9.00;59.10;;;;;;4977527;28;20447;-83
2021/03/05 00:37:24;;;;;;;19.63;5.40;;;9.00;59.30;;;;;;4980261;28;20072;-84
2021/03/05 00:39:50;;;;;;;17.37;6.37;;;9.00;59.50;;;;;;4979297;28;20046;-84
2021/03/05 00:42:15;;;;;;;25.27;6.90;;;9.00;59.70;;;;;;4987368;28;20037;-84
2021/03/05 00:44:41;;;;;;;19.60;6.10;;;9.00;60.00;;;;;;5002777;28;20028;-84
2021/03/05 00:47:07;;;;;;;21.93;7.20;;;9.10;60.10;;;;;;4981339;28;20448;-84
2021/03/05 00:49:33;;;;;;;17.07;7.27;;;9.10;60.10;;;;;;4998786;28;20080;-84
2021/03/05 00:51:58;;;;;;;21.77;7.00;;;9.00;60.40;;;;;;4997487;28;20034;-85
2021/03/05 00:54:24;;;;;;;17.50;7.23;;;9.00;60.70;;;;;;4968712;28;20030;-84
2021/03/05 00:56:50;;;;;;;20.97;6.30;;;9.00;60.80;;;;;;4983458;28;20038;-84
2021/03/05 00:59:16;;;;;;;14.37;5.33;;;9.00;60.90;;;;;;4976675;28;20073;-84
2021/03/05 01:01:41;;;;;;;18.00;6.20;;;8.90;61.20;;;;;;4993907;28;20039;-84
2021/03/05 01:04:07;;;;;;;18.60;5.80;;;8.90;61.60;;;;;;4978996;28;20039;-84
2021/03/05 01:06:33;;;;;;;20.23;5.73;;;8.90;61.70;;;;;;4976670;28;20027;-84
2021/03/05 01:08:59;;;;;;;19.73;5.63;;;9.00;61.80;;;;;;4977327;28;20038;-84
2021/03/05 01:11:24;;;;;;;15.17;4.93;;;9.00;61.70;;;;;;4978363;28;20473;-84
2021/03/05 01:13:50;;;;;;;17.77;5.23;;;9.00;61.70;;;;;;4980717;28;20590;-84
2021/03/05 01:16:16;;;;;;;18.37;5.53;;;9.00;61.90;;;;;;5003593;28;20076;-84
2021/03/05 01:18:42;;;;;;;14.57;4.87;;;9.00;62.30;;;;;;4981630;28;20085;-84
2021/03/05 01:21:08;;;;;;;16.37;4.90;;;9.00;62.70;;;;;;5006069;28;20035;-84
2021/03/05 01:23:34;;;;;;;16.87;5.40;;;9.00;62.90;;;;;;5004222;28;20045;-84
2021/03/05 01:26:00;;;;;;;12.23;4.30;;;9.00;63.20;;;;;;4977648;28;20168;-84
2021/03/05 01:28:26;;;;;;;13.63;4.60;;;9.00;63.40;;;;;;4988626;28;20469;-84
2021/03/05 01:30:52;;;;;;;19.00;4.63;;;9.00;63.70;;;;;;4977189;28;20035;-84
2021/03/05 01:33:18;;;;;;;13.77;5.93;;;9.00;63.90;;;;;;4990364;28;20034;-84
2021/03/05 01:35:44;;;;;;;19.17;4.53;;;9.00;64.00;;;;;;4979810;28;20034;-84
2021/03/05 01:38:10;;;;;;;14.83;4.43;;;9.00;64.60;;;;;;4980719;28;20077;-84
2021/03/05 01:40:38;;;;;;;18.80;7.00;;;9.00;64.60;;;;;;4976855;28;20034;-84
2021/03/05 01:43:10;;;;;;;20.97;7.83;;;9.10;64.70;;;;;;4978516;28;20101;-83
2021/03/05 01:45:35;;;;;;;18.80;7.90;;;9.00;64.50;;;;;;4996781;28;20069;-83
2021/03/05 01:48:05;;;;;;;20.00;8.53;;;9.00;64.60;;;;;;4990846;28;20117;-83
2021/03/05 01:50:37;;;;;;;18.93;7.27;;;9.00;65.00;;;;;;4989991;28;20019;-84
2021/03/05 01:53:05;;;;;;;22.23;8.23;;;9.00;65.00;;;;;;4996864;28;20105;-84
2021/03/05 01:55:33;;;;;;;13.47;7.17;;;9.00;65.00;;;;;;4980454;28;20469;-84
2021/03/05 01:57:59;;;;;;;17.23;9.00;;;9.00;64.90;;;;;;4994337;28;20031;-84
2021/03/05 02:00:37;;;;;;;22.87;8.43;;;9.00;64.70;;;;;;4979212;28;20025;-84
2021/03/05 02:03:04;;;;;;;26.67;9.03;;;9.10;65.00;;;;;;4980181;28;20030;-84
2021/03/05 02:05:30;;;;;;;22.83;10.10;;;9.10;64.70;;;;;;4980223;28;20037;-84
2021/03/05 02:07:56;;;;;;;20.83;8.70;;;9.10;65.10;;;;;;5009003;28;20481;-84
2021/03/05 02:10:22;;;;;;;20.43;8.73;;;9.10;65.30;;;;;;5000788;28;20063;-84
2021/03/05 02:12:48;;;;;;;20.60;8.73;;;9.00;65.30;;;;;;4991315;28;20039;-84
2021/03/05 02:15:14;;;;;;;19.10;8.83;;;9.10;65.40;;;;;;4977685;28;20449;-84
2021/03/05 02:17:56;;;;;;;20.30;9.47;;;9.10;65.30;;;;;;4980477;28;20031;-84
2021/03/05 02:20:30;;;;;;;18.87;9.00;;;9.10;65.50;;;;;;5002997;28;20449;-84
2021/03/05 02:23:24;;;;;;;20.40;10.00;;;9.10;65.50;;;;;;4981331;28;20500;-84
2021/03/05 02:26:21;;;;;;;22.07;9.43;;;9.10;65.70;;;;;;4978691;28;20129;-84
2021/03/05 02:28:52;;;;;;;24.70;9.90;;;9.10;66.00;;;;;;5008717;28;20034;-84
2021/03/05 02:31:38;;;;;;;22.10;10.27;;;9.00;66.00;;;;;;4998152;28;20408;-84
2021/03/05 02:34:10;;;;;;;22.20;9.83;;;9.00;66.00;;;;;;4969839;28;20046;-84
2021/03/05 02:36:59;;;;;;;16.55;9.63;;;9.00;66.50;;;;;;4978391;28;20037;-84
2021/03/05 02:39:37;;;;;;;20.20;9.13;;;9.00;66.60;;;;;;4997023;28;20426;-84
2021/03/05 02:42:08;;;;;;;24.13;10.53;;;9.00;66.70;;;;;;4980713;28;20034;-85
2021/03/05 02:44:42;;;;;;;23.50;9.93;;;9.00;66.90;;;;;;4980094;28;20049;-85
2021/03/05 02:47:11;;;;;;;22.67;10.80;;;9.00;67.10;;;;;;4979455;28;20023;-85
2021/03/05 02:49:40;;;;;;;32.83;11.20;;;9.00;67.20;;;;;;4973893;28;20058;-84
2021/03/05 02:52:11;;;;;;;15.03;9.50;;;9.00;67.40;;;;;;4994929;28;20030;-84
2021/03/05 02:54:39;;;;;;;28.40;10.40;;;9.00;67.70;;;;;;4974729;28;20022;-85
2021/03/05 02:57:11;;;;;;;22.50;10.27;;;8.90;67.80;;;;;;4978957;28;20125;-85
2021/03/05 02:59:38;;;;;;;24.08;10.07;;;8.90;68.00;;;;;;4972136;28;20026;-85
2021/03/05 03:02:06;;;;;;;22.60;10.27;;;8.90;67.70;;;;;;4989842;28;20037;-85
2021/03/05 03:04:34;;;;;;;23.83;9.63;;;8.90;68.00;;;;;;4984073;28;20080;-84
2021/03/05 03:07:01;;;;;;;18.17;8.90;;;8.90;68.10;;;;;;4995849;28;20065;-84
2021/03/05 03:09:28;;;;;;;24.93;10.03;;;9.00;68.00;;;;;;4987714;28;20033;-84
2021/03/05 03:11:54;;;;;;;20.17;9.47;;;9.00;68.00;;;;;;5015862;28;20468;-84
2021/03/05 03:14:21;;;;;;;20.53;9.67;;;9.00;68.00;;;;;;4979603;28;20060;-84
2021/03/05 03:16:48;;;;;;;15.83;9.53;;;9.00;68.10;;;;;;4971514;28;20030;-83
2021/03/05 03:19:17;;;;;;;20.43;9.70;;;9.00;68.20;;;;;;4975048;28;20140;-84
2021/03/05 03:21:43;;;;;;;18.50;8.80;;;9.00;68.40;;;;;;4968516;28;20035;-84
2021/03/05 03:24:09;;;;;;;17.27;10.60;;;9.00;68.50;;;;;;4984553;28;20228;-83
2021/03/05 03:26:36;;;;;;;25.67;9.57;;;9.00;68.60;;;;;;4961880;28;20027;-84
2021/03/05 03:29:04;;;;;;;33.00;11.37;;;9.00;68.60;;;;;;4977882;28;20026;-84
2021/03/05 03:31:30;;;;;;;22.93;11.47;;;9.00;68.60;;;;;;4981362;28;20465;-84
2021/03/05 03:33:56;;;;;;;23.90;9.50;;;9.00;68.50;;;;;;4978729;28;20077;-84
2021/03/05 03:36:23;;;;;;;20.27;10.70;;;8.90;68.70;;;;;;4981590;28;20137;-84
2021/03/05 03:38:48;;;;;;;21.40;10.73;;;8.90;68.90;;;;;;4992608;28;20393;-84
2021/03/05 03:41:15;;;;;;;20.87;10.63;;;8.90;68.90;;;;;;4978083;28;20031;-84
2021/03/05 03:43:42;;;;;;;20.73;10.53;;;8.90;68.80;;;;;;4978109;28;20110;-84
2021/03/05 03:46:09;;;;;;;20.30;10.90;;;8.80;68.80;;;;;;4983131;28;20477;-84
2021/03/05 03:48:40;;;;;;;17.30;9.90;;;8.70;69.00;;;;;;4995016;28;20023;-84
2021/03/05 03:51:09;;;;;;;24.37;9.73;;;8.80;69.30;;;;;;4987302;28;20030;-84
2021/03/05 03:53:38;;;;;;;21.93;10.13;;;8.80;69.10;;;;;;4994604;28;20041;-84
2021/03/05 03:56:08;;;;;;;22.53;9.90;;;8.70;69.20;;;;;;4980212;28;20045;-84
2021/03/05 03:58:36;;;;;;;20.93;10.57;;;8.70;69.10;;;;;;4972417;28;20030;-84
2021/03/05 04:01:11;;;;;;;18.43;9.93;;;8.70;69.30;;;;;;4985063;28;20470;-84
2021/03/05 04:03:39;;;;;;;21.47;10.43;;;8.70;69.40;;;;;;4974758;28;20454;-84
2021/03/05 04:06:09;;;;;;;19.37;10.47;;;8.70;69.40;;;;;;4975362;28;20034;-84
2021/03/05 04:08:37;;;;;;;16.77;9.63;;;8.80;69.40;;;;;;4977290;28;20026;-84
2021/03/05 04:11:05;;;;;;;21.33;10.00;;;8.70;69.50;;;;;;4997194;28;20045;-84
2021/03/05 04:13:32;;;;;;;21.83;11.33;;;8.70;69.70;;;;;;4985275;28;20050;-84
2021/03/05 04:15:58;;;;;;;22.47;10.27;;;8.70;69.60;;;;;;4974699;28;20536;-83
2021/03/05 04:18:39;;;;;;;24.57;10.37;;;8.80;69.50;;;;;;4991425;28;20386;-83
2021/03/05 04:21:17;;;;;;;28.03;11.00;;;8.70;69.70;;;;;;4993599;28;20026;-84
2021/03/05 04:23:42;;;;;;;19.43;9.87;;;8.70;70.00;;;;;;4993986;28;20027;-84
2021/03/05 04:26:08;;;;;;;21.80;9.77;;;8.70;70.00;;;;;;4981063;28;20503;-84
2021/03/05 04:28:34;;;;;;;19.87;9.87;;;8.80;69.90;;;;;;4991247;28;20022;-84
2021/03/05 04:31:00;;;;;;;19.10;11.30;;;8.80;69.80;;;;;;4960064;28;20035;-84
2021/03/05 04:33:25;;;;;;;20.50;10.57;;;8.80;69.70;;;;;;4991410;28;20059;-84
2021/03/05 04:35:51;;;;;;;29.07;12.30;;;8.90;69.70;;;;;;4980483;28;20385;-84
2021/03/05 04:38:17;;;;;;;23.63;10.83;;;8.80;69.70;;;;;;4984629;28;20113;-84
2021/03/05 04:40:43;;;;;;;28.20;11.23;;;8.80;70.00;;;;;;5005422;28;20044;-84
2021/03/05 04:43:08;;;;;;;21.83;9.90;;;8.80;70.00;;;;;;4973788;28;20026;-84
2021/03/05 04:45:34;;;;;;;25.13;11.03;;;8.80;70.10;;;;;;4974672;28;20023;-84
2021/03/05 04:48:00;;;;;;;22.50;9.43;;;8.80;70.10;;;;;;4976765;28;20022;-84
2021/03/05 04:50:26;;;;;;;32.20;10.73;;;8.80;70.20;;;;;;4984725;28;20046;-84
2021/03/05 04:52:51;;;;;;;28.73;12.30;;;8.80;70.40;;;;;;4989457;28;20038;-84
2021/03/05 04:55:26;;;;;;;34.33;12.77;;;8.70;70.50;;;;;;4968210;28;20035;-84
2021/03/05 04:57:52;;;;;;;32.77;12.33;;;8.80;70.80;;;;;;4988380;28;20027;-84
2021/03/05 05:00:18;;;;;;;23.20;10.93;;;8.80;70.50;;;;;;4971965;28;20054;-84
2021/03/05 05:02:43;;;;;;;20.50;9.90;;;8.80;70.50;;;;;;4971198;28;20458;-83
2021/03/05 05:05:10;;;;;;;25.43;10.77;;;8.80;70.40;;;;;;4974432;28;20027;-83
2021/03/05 05:07:36;;;;;;;20.90;9.17;;;8.80;70.40;;;;;;4974807;28;20026;-84
2021/03/05 05:10:03;;;;;;;23.03;9.27;;;8.80;70.40;;;;;;4973165;28;20027;-83
2021/03/05 05:12:28;;;;;;;20.20;9.50;;;8.80;70.70;;;;;;4960137;28;20031;-84
2021/03/05 05:14:54;;;;;;;19.20;10.10;;;8.90;70.40;;;;;;4953296;28;719252;-83
2021/03/05 05:17:20;;;;;;;23.57;11.00;;;8.90;70.20;;;;;;4975244;28;20033;-83
2021/03/05 05:19:46;;;;;;;21.97;10.93;;;8.90;70.20;;;;;;4976821;28;20037;-83
2021/03/05 05:22:11;;;;;;;27.77;10.70;;;8.80;70.40;;;;;;4976499;28;20022;-83
2021/03/05 05:24:37;;;;;;;20.10;10.93;;;8.80;70.40;;;;;;4976609;28;20436;-83
2021/03/05 05:27:04;;;;;;;16.63;9.90;;;8.80;70.30;;;;;;4994385;28;20054;-83
2021/03/05 05:29:30;;;;;;;22.90;12.73;;;8.80;70.40;;;;;;4985921;28;20026;-83
2021/03/05 05:31:56;;;;;;;21.93;10.27;;;8.70;70.50;;;;;;4979988;28;20146;-83
2021/03/05 05:34:21;;;;;;;17.87;10.63;;;8.70;70.60;;;;;;4978541;28;20042;-83
2021/03/05 05:36:47;;;;;;;22.77;10.27;;;8.80;70.80;;;;;;4986346;28;20041;-83
2021/03/05 05:39:13;;;;;;;20.73;10.90;;;8.80;70.50;;;;;;4975383;28;20084;-83
2021/03/05 05:41:42;;;;;;;22.23;12.33;;;8.80;70.40;;;;;;4979772;28;20034;-83
2021/03/05 05:44:08;;;;;;;15.40;10.30;;;8.70;70.50;;;;;;4996753;28;20488;-83
2021/03/05 05:46:35;;;;;;;31.87;10.70;;;8.60;70.80;;;;;;4984527;28;20042;-83
2021/03/05 05:49:03;;;;;;;20.57;11.03;;;8.70;70.90;;;;;;4974828;28;20338;-83
2021/03/05 05:51:34;;;;;;;23.60;12.33;;;8.70;70.80;;;;;;5000155;28;20030;-83
2021/03/05 05:54:24;;;;;;;22.53;11.37;;;8.70;70.80;;;;;;4970592;28;20042;-83
2021/03/05 05:56:52;;;;;;;24.47;12.00;;;8.70;70.70;;;;;;5000749;28;20133;-82
2021/03/05 05:59:18;;;;;;;17.37;10.87;;;8.70;70.80;;;;;;4976436;28;20047;-83
2021/03/05 06:01:45;;;;;;;21.17;11.53;;;8.70;70.70;;;;;;4993630;28;20026;-83
2021/03/05 06:04:12;;;;;;;24.93;11.63;;;8.70;70.70;;;;;;4978885;28;20038;-83
2021/03/05 06:06:38;;;;;;;27.17;13.40;;;8.70;70.70;;;;;;4978517;28;20516;-83
2021/03/05 06:09:04;;;;;;;24.70;12.10;;;8.70;70.80;;;;;;4995045;28;20026;-83
2021/03/05 06:11:35;;;;;;;33.17;14.20;;;8.70;70.90;;;;;;4989325;28;20096;-83
2021/03/05 06:14:06;;;;;;;28.17;12.27;;;8.70;70.80;;;;;;4975554;28;20391;-83
2021/03/05 06:16:32;;;;;;;29.43;13.60;;;8.80;70.80;;;;;;4976889;28;20064;-83
2021/03/05 06:18:59;;;;;;;27.20;14.40;;;8.80;70.80;;;;;;4977843;28;20030;-83
2021/03/05 06:21:36;;;;;;;30.60;14.40;;;8.80;70.80;;;;;;4992302;28;20559;-83
2021/03/05 06:24:06;;;;;;;26.27;14.40;;;8.80;71.00;;;;;;4997340;28;20516;-83
2021/03/05 06:26:55;;;;;;;25.57;14.10;;;8.70;70.80;;;;;;4994146;28;20533;-83
2021/03/05 06:29:23;;;;;;;22.53;13.73;;;8.70;71.20;;;;;;4982548;28;20516;-83
2021/03/05 06:31:52;;;;;;;35.67;17.37;;;8.70;71.10;;;;;;4976055;28;20079;-83
2021/03/05 06:34:18;;;;;;;23.20;13.20;;;8.70;71.20;;;;;;4993771;28;20034;-83
2021/03/05 06:36:44;;;;;;;26.23;15.27;;;8.80;71.20;;;;;;4976971;28;20034;-83
2021/03/05 06:39:09;;;;;;;25.47;15.87;;;8.80;71.10;;;;;;4991161;28;20125;-83
2021/03/05 06:41:36;;;;;;;30.17;13.97;;;8.80;71.10;;;;;;4993933;28;20470;-83
2021/03/05 06:44:04;;;;;;;25.80;14.63;;;8.80;71.10;;;;;;5001412;28;20377;-83
2021/03/05 06:46:37;;;;;;;31.33;14.43;;;8.80;71.60;;;;;;4990229;28;20030;-83
2021/03/05 06:49:04;;;;;;;;;;;8.80;71.00;;;;;;4999134;28;20023;-83
2021/03/05 06:51:30;;;;;;;30.27;16.23;;;8.80;71.00;;;;;;4986297;28;19910;-83
2021/03/05 06:54:07;;;;;;;36.23;17.00;;;8.70;70.90;;;;;;4989014;28;20022;-83
2021/03/05 06:56:34;;;;;;;27.17;15.20;;;8.70;71.10;;;;;;4981096;28;20045;-83
2021/03/05 06:59:07;;;;;;;34.90;15.47;;;8.70;71.10;;;;;;4983519;28;20113;-83
2021/03/05 07:01:46;;;;;;;;;;;8.80;71.30;;;;;;4974789;28;20038;-83
2021/03/05 07:04:17;;;;;;;35.50;14.80;;;8.80;71.00;;;;;;4973779;28;19910;-83
2021/03/05 07:06:44;;;;;;;37.43;15.97;;;8.80;70.90;;;;;;4978167;28;20061;-83
2021/03/05 07:09:21;;;;;;;36.50;15.70;;;8.70;71.10;;;;;;4966109;28;20069;-82
2021/03/05 07:11:48;;;;;;;29.30;13.90;;;8.70;71.50;;;;;;4974129;28;20036;-83
2021/03/05 07:14:14;;;;;;;32.53;12.60;;;8.70;71.40;;;;;;4987288;28;20042;-83
2021/03/05 07:16:46;;;;;;;29.73;15.20;;;8.70;71.30;;;;;;4984979;28;20035;-83
2021/03/05 07:19:14;;;;;;;30.23;14.10;;;8.70;71.40;;;;;;4969234;28;20063;-83
2021/03/05 07:21:42;;;;;;;33.77;14.83;;;8.70;71.60;;;;;;4972458;28;20094;-83
2021/03/05 07:24:10;;;;;;;40.17;19.43;;;8.70;71.50;;;;;;4995866;28;20022;-83
2021/03/05 07:26:44;;;;;;;29.23;15.93;;;8.80;71.40;;;;;;4995994;28;20028;-83
2021/03/05 07:29:18;;;;;;;31.10;16.10;;;8.80;71.50;;;;;;4993878;28;20052;-83
2021/03/05 07:31:45;;;;;;;25.40;16.57;;;8.80;71.60;;;;;;4989784;28;20033;-84
2021/03/05 07:34:16;;;;;;;26.73;17.53;;;8.90;71.50;;;;;;4982161;28;20473;-83
2021/03/05 07:36:47;;;;;;;27.80;16.10;;;8.90;71.60;;;;;;4980334;28;20046;-84
2021/03/05 07:39:18;;;;;;;28.43;15.47;;;8.80;71.70;;;;;;4971363;28;20037;-83
2021/03/05 07:41:44;;;;;;;24.53;13.23;;;8.80;71.70;;;;;;4981827;28;22028;-84
2021/03/05 07:44:11;;;;;;;25.87;13.97;;;8.80;71.70;;;;;;4990297;28;20060;-84
2021/03/05 07:46:37;;;;;;;23.47;13.73;;;8.90;71.80;;;;;;4978607;28;20026;-83
2021/03/05 07:49:03;;;;;;;26.83;13.80;;;8.90;71.60;;;;;;4978411;28;20151;-83
2021/03/05 07:51:29;;;;;;;27.93;14.57;;;9.00;72.20;;;;;;4977109;28;20713;-83
2021/03/05 07:53:56;;;;;;;30.50;14.73;;;9.00;71.60;;;;;;4975647;28;20041;-83
2021/03/05 07:56:49;;;;;;;30.43;13.73;;;9.00;71.70;;;;;;4961155;28;20027;-84
2021/03/05 07:59:37;;;;;;;25.40;13.17;;;9.00;71.60;;;;;;4978431;28;20042;-84
2021/03/05 08:02:03;;;;;;;23.60;13.70;;;9.10;71.50;;;;;;4977840;28;20532;-84
2021/03/05 08:04:55;;;;;;;23.77;13.70;;;9.10;71.40;;;;;;5004834;28;20026;-84
2021/03/05 08:07:27;;;;;;;23.53;12.17;;;9.00;71.70;;;;;;4994349;28;20033;-84
2021/03/05 08:09:53;;;;;;;24.57;13.50;;;9.00;71.70;;;;;;4975183;28;20022;-85
2021/03/05 08:12:37;;;;;;;26.47;13.17;;;9.00;71.70;;;;;;4975982;28;20446;-84
2021/03/05 08:15:08;;;;;;;27.90;14.07;;;9.00;72.00;;;;;;4977058;28;20042;-84
2021/03/05 08:17:35;;;;;;;29.17;14.30;;;9.00;71.90;;;;;;4982923;28;20446;-84
2021/03/05 08:20:03;;;;;;;34.43;13.80;;;9.00;72.10;;;;;;4976181;28;20480;-84
2021/03/05 08:22:31;;;;;;;30.43;14.97;;;9.00;72.10;;;;;;4995139;28;20030;-84
2021/03/05 08:25:27;;;;;;;26.77;13.53;;;9.00;72.20;;;;;;4979368;28;20030;-84
2021/03/05 08:27:54;;;;;;;22.43;13.23;;;9.00;72.50;;;;;;4975515;28;20571;-83
2021/03/05 08:30:40;;;;;;;26.20;13.40;;;9.10;72.50;;;;;;5010197;28;20105;-84
2021/03/05 08:33:26;;;;;;;22.77;11.40;;;9.10;72.40;;;;;;4967110;28;20401;-83
2021/03/05 08:35:52;;;;;;;22.60;10.37;;;9.10;72.30;;;;;;4974966;28;20037;-83
2021/03/05 08:38:33;;;;;;;20.10;10.13;;;9.10;72.20;;;;;;4987300;28;20023;-83
2021/03/05 08:41:07;;;;;;;17.77;10.33;;;9.10;72.20;;;;;;4985879;28;20049;-84
2021/03/05 08:43:37;;;;;;;17.17;10.93;;;9.10;72.30;;;;;;5003443;28;20140;-84
2021/03/05 08:46:04;;;;;;;19.23;10.60;;;9.10;72.20;;;;;;4969889;28;20022;-83
2021/03/05 08:48:44;;;;;;;22.83;11.37;;;9.10;72.10;;;;;;4981640;28;20042;-83
2021/03/05 08:51:21;;;;;;;17.90;10.13;;;9.20;72.50;;;;;;4991378;28;20508;-84
2021/03/05 08:53:48;;;;;;;34.00;13.27;;;9.30;72.30;;;;;;4979959;28;20022;-84
2021/03/05 08:56:33;;;;;;;34.67;12.57;;;9.40;72.20;;;;;;4994644;28;20034;-84
2021/03/05 08:59:03;;;;;;;33.20;12.93;;;9.50;72.50;;;;;;4983595;28;20026;-84
2021/03/05 09:01:37;;;;;;;19.97;7.70;;;9.60;72.20;;;;;;4974979;28;20130;-84
2021/03/05 09:04:21;;;;;;;16.93;7.50;;;9.50;71.70;;;;;;4997814;28;20116;-84
2021/03/05 09:06:57;;;;;;;16.63;6.73;;;9.50;72.00;;;;;;4990938;28;20030;-84
2021/03/05 09:09:30;;;;;;;16.33;6.23;;;9.50;71.70;;;;;;4996891;28;20614;-83
2021/03/05 09:12:16;;;;;;;13.80;6.30;;;9.60;71.70;;;;;;5019905;28;20038;-83
2021/03/05 09:14:45;;;;;;;12.70;6.67;;;9.60;71.40;;;;;;4963350;28;20082;-83
2021/03/05 09:17:13;;;;;;;13.53;6.40;;;9.60;71.40;;;;;;4995777;28;20035;-84
2021/03/05 09:19:44;;;;;;;11.97;6.37;;;9.70;71.10;;;;;;4982912;28;20034;-84
2021/03/05 09:22:14;;;;;;;15.27;6.40;;;9.70;70.90;;;;;;4997042;28;20088;-84
2021/03/05 09:24:58;;;;;;;11.53;6.13;;;9.80;71.00;;;;;;5013994;28;20030;-84
2021/03/05 09:27:30;;;;;;;10.10;5.37;;;9.80;70.90;;;;;;5012863;28;20029;-84
2021/03/05 09:29:57;;;;;;;8.20;5.15;;;9.70;70.80;;;;;;4997685;28;20062;-84
2021/03/05 09:32:23;;;;;;;8.57;5.20;;;9.70;70.70;;;;;;4978245;28;20091;-84
2021/03/05 09:34:57;;;;;;;10.47;4.30;;;9.70;70.70;;;;;;4973580;28;20208;-84
2021/03/05 09:37:29;;;;;;;8.40;4.03;;;9.70;71.30;;;;;;4981987;28;20026;-84
2021/03/05 09:39:58;;;;;;;7.37;4.13;;;9.70;70.50;;;;;;4982593;28;20038;-84
2021/03/05 09:42:53;;;;;;;7.57;3.70;;;9.70;70.50;;;;;;4991804;28;20146;-84
2021/03/05 09:45:38;;;;;;;5.37;3.13;;;9.70;70.50;;;;;;4968778;28;20029;-84
2021/03/05 09:48:07;;;;;;;6.93;3.27;;;9.70;70.30;;;;;;4981208;28;20121;-84
2021/03/05 09:50:34;;;;;;;5.83;3.20;;;9.60;70.70;;;;;;4998401;28;20057;-84
2021/03/05 09:53:25;;;;;;;6.67;3.27;;;9.60;70.40;;;;;;4971373;28;20057;-84
2021/03/05 09:55:55;;;;;;;6.17;3.67;;;9.70;70.40;;;;;;4979749;28;20030;-84
2021/03/05 09:58:21;;;;;;;7.10;3.27;;;9.70;70.30;;;;;;4999851;28;20018;-84
2021/03/05 10:00:48;;;;;;;8.00;3.67;;;9.70;70.30;;;;;;5009831;28;20057;-84
2021/03/05 10:03:14;;;;;;;8.27;3.90;;;9.70;70.20;;;;;;4975087;28;20033;-84
2021/03/05 10:05:43;;;;;;;4.80;3.53;;;9.70;70.30;;;;;;4973989;28;20030;-84
2021/03/05 10:08:16;;;;;;;8.47;3.77;;;9.80;70.50;;;;;;4994863;28;20027;-84
2021/03/05 10:11:08;;;;;;;8.50;4.47;;;9.90;70.60;;;;;;4980557;28;20041;-84
2021/03/05 10:13:56;;;;;;;10.50;4.53;;;10.00;70.50;;;;;;4979677;28;20050;-84
2021/03/05 10:16:51;;;;;;;7.30;3.73;;;10.00;70.50;;;;;;4983207;28;20370;-84
2021/03/05 10:19:21;;;;;;;6.77;4.07;;;10.10;70.10;;;;;;4956344;28;20057;-84
2021/03/05 10:21:54;;;;;;;12.30;5.03;;;10.10;70.30;;;;;;4973391;28;20034;-84
2021/03/05 10:24:28;;;;;;;4.53;2.10;;;10.20;70.40;;;;;;4977372;28;20031;-84
2021/03/05 10:27:19;;;;;;;6.50;3.37;;;10.40;69.90;;;;;;4991822;28;20026;-84
2021/03/05 10:29:46;;;;;;;9.47;5.67;;;10.40;69.70;;;;;;4977531;28;20026;-84
2021/03/05 10:32:25;;;;;;;13.20;5.73;;;10.50;69.60;;;;;;4979896;28;20030;-84
2021/03/05 10:34:53;;;;;;;20.23;9.50;;;10.60;69.70;;;;;;4977400;28;20482;-84
2021/03/05 10:37:19;;;;;;;23.93;13.60;;;10.60;69.70;;;;;;4976889;28;20029;-84
2021/03/05 10:39:47;;;;;;;25.90;12.00;;;10.60;69.60;;;;;;4976682;28;20093;-84
2021/03/05 10:42:14;;;;;;;41.43;17.27;;;10.60;69.50;;;;;;4976411;28;20038;-84
2021/03/05 10:44:41;;;;;;;33.07;14.77;;;10.50;69.20;;;;;;4970919;28;20018;-84
2021/03/05 10:47:09;;;;;;;13.80;7.67;;;10.40;69.40;;;;;;4980083;28;20026;-84
2021/03/05 10:49:37;;;;;;;5.17;3.20;;;10.30;69.10;;;;;;4976132;28;20022;-84
2021/03/05 10:52:07;;;;;;;3.23;1.90;;;10.10;69.10;;;;;;4979589;28;20027;-84
2021/03/05 10:54:33;;;;;;;2.10;1.30;;;10.00;69.30;;;;;;4982631;28;20035;-84
2021/03/05 10:56:59;;;;;;;2.20;1.30;;;9.90;69.40;;;;;;4987216;28;20085;-84
2021/03/05 10:59:26;;;;;;;4.93;1.50;;;9.90;69.10;;;;;;4996857;28;20030;-84
2021/03/05 11:01:53;;;;;;;1.10;0.90;;;10.00;68.90;;;;;;4977835;28;20035;-85
2021/03/05 11:04:20;;;;;;;1.80;1.10;;;10.00;68.20;;;;;;4995618;28;20493;-85
2021/03/05 11:06:46;;;;;;;2.33;1.20;;;9.80;68.40;;;;;;5003347;28;20053;-84
2021/03/05 11:09:13;;;;;;;2.20;0.80;;;9.80;68.60;;;;;;4972873;28;20023;-84
2021/03/05 11:11:39;;;;;;;1.30;0.93;;;9.80;68.40;;;;;;4971629;28;20387;-85
2021/03/05 11:14:05;;;;;;;1.70;1.10;;;9.80;68.30;;;;;;4979520;28;20066;-85
2021/03/05 11:16:31;;;;;;;2.77;0.83;;;9.80;68.10;;;;;;4980024;28;20029;-85
2021/03/05 11:18:57;;;;;;;1.97;0.60;;;9.80;67.70;;;;;;5013845;28;20049;-85
2021/03/05 11:21:23;;;;;;;0.90;0.53;;;9.90;67.20;;;;;;4980558;28;20066;-85
2021/03/05 11:23:49;;;;;;;3.73;1.00;;;9.90;66.80;;;;;;4987101;28;20101;-85
2021/03/05 11:26:16;;;;;;;2.63;0.50;;;9.90;66.90;;;;;;4990185;28;20385;-85
2021/03/05 11:28:42;;;;;;;1.90;0.60;;;9.90;66.80;;;;;;4977278;28;20035;-85
2021/03/05 11:31:09;;;;;;;1.33;0.80;;;9.80;66.50;;;;;;4978223;28;20478;-85
2021/03/05 11:33:35;;;;;;;1.57;0.87;;;9.80;66.60;;;;;;4979854;28;20102;-85
2021/03/05 11:36:01;;;;;;;0.60;0.50;;;9.80;66.40;;;;;;4978980;28;20059;-85
2021/03/05 11:38:26;;;;;;;1.27;0.70;;;9.70;66.40;;;;;;4970026;28;20030;-85
2021/03/05 11:40:52;;;;;;;1.83;0.70;;;9.70;66.50;;;;;;4973337;28;20035;-85
2021/03/05 11:43:18;;;;;;;0.73;0.50;;;9.70;66.40;;;;;;4978408;28;20539;-85
2021/03/05 11:45:44;;;;;;;1.27;0.60;;;9.60;66.50;;;;;;4974579;28;20363;-84
2021/03/05 11:48:10;;;;;;;1.40;0.70;;;9.60;66.60;;;;;;4995290;28;20046;-87
2021/03/05 11:50:36;;;;;;;1.07;0.83;;;9.60;66.60;;;;;;4975212;28;20190;-83
2021/03/05 11:53:02;;;;;;;0.80;0.50;;;9.60;66.40;;;;;;4987216;28;20023;-85
2021/03/05 11:55:32;;;;;;;1.37;0.70;;;9.50;66.40;;;;;;4979939;28;20177;-86
2021/03/05 11:58:02;;;;;;;1.17;0.67;;;9.50;66.30;;;;;;4992809;28;20031;-86
2021/03/05 12:00:32;;;;;;;1.27;0.83;;;9.50;66.30;;;;;;4977336;28;20027;-86
2021/03/05 12:02:59;;;;;;;0.97;0.60;;;9.50;66.10;;;;;;4980871;28;20042;-84
2021/03/05 12:05:25;;;;;;;1.10;0.90;;;9.50;66.00;;;;;;4997254;28;20030;-84
2021/03/05 12:07:52;;;;;;;1.53;1.00;;;9.40;65.70;;;;;;4975532;28;20107;-85
2021/03/05 12:10:18;;;;;;;1.40;0.70;;;9.30;65.30;;;;;;4984699;28;20026;-85
2021/03/05 12:12:44;;;;;;;1.17;0.87;;;9.30;65.40;;;;;;4981113;28;20039;-84
2021/03/05 12:15:11;;;;;;;1.20;0.80;;;9.20;65.40;;;;;;5000998;28;20050;-85
2021/03/05 12:17:37;;;;;;;1.20;1.00;;;9.20;65.40;;;;;;4997790;28;20112;-85
2021/03/05 12:20:04;;;;;;;1.70;1.30;;;9.30;65.60;;;;;;4978820;28;20429;-84
2021/03/05 12:22:30;;;;;;;1.40;1.03;;;9.20;65.50;;;;;;4979773;28;20037;-84
2021/03/05 12:24:56;;;;;;;1.50;1.13;;;9.20;65.60;;;;;;4981329;28;20137;-84
2021/03/05 12:27:23;;;;;;;2.03;1.73;;;9.20;65.50;;;;;;5011095;28;20053;-84
2021/03/05 12:29:49;;;;;;;2.10;1.57;;;9.10;65.40;;;;;;4987977;28;20090;-85
2021/03/05 12:32:15;;;;;;;3.27;1.50;;;9.10;66.00;;;;;;4975101;28;20046;-86
2021/03/05 12:34:41;;;;;;;1.93;1.50;;;9.20;66.00;;;;;;4965658;28;20026;-86
2021/03/05 12:37:08;;;;;;;2.47;2.00;;;9.40;65.80;;;;;;4968455;28;20027;-85
2021/03/05 12:39:35;;;;;;;2.40;1.70;;;9.50;65.40;;;;;;4989018;28;20034;-85
2021/03/05 12:42:01;;;;;;;1.93;1.50;;;9.50;65.70;;;;;;4987863;28;20080;-85
2021/03/05 12:44:27;;;;;;;1.63;1.40;;;9.50;65.70;;;;;;4995525;28;20037;-85
2021/03/05 12:46:53;;;;;;;1.90;1.47;;;9.50;65.50;;;;;;5003722;28;20501;-84
2021/03/05 12:49:19;;;;;;;1.97;1.30;;;9.60;65.50;;;;;;4983081;28;20050;-83
2021/03/05 12:51:45;;;;;;;1.93;1.20;;;9.60;65.20;;;;;;4986049;28;20033;-83
2021/03/05 12:54:11;;;;;;;8.10;1.40;;;9.60;65.20;;;;;;5004571;28;20034;-85
2021/03/05 12:56:37;;;;;;;1.20;0.93;;;9.50;65.20;;;;;;4987674;28;20164;-85